• Join FlightAware (Why Join?)
  • Login
  • US Flag 
08:03PM EDT


 

Airport Tracker/Info


-or-


 

Live Flight TrackerFlight Track Log ✈ GLA31B ✈ 20-Jul-2013 ✈ KBFF - KDEN

Flight Track Log - Related Links

Times and Time Zones

All times are in EDT time to prevent confusion due to time zone crossing. See the GLA31B flight status page for this flight to view local times or setup timezone preferences in your user account.

Time Position Orientation Groundspeed Altitude Reporting Facility
EDT Latitude Longitude Course Direction KTS MPH feet Rate Location/Type
08:49AM 41.8156 -103.5186 176° South 187 215 5,900  Level Denver Center
08:50AM 41.7628 -103.5131 176° South 183 211 7,600 1,500 Climbing Denver Center
08:51AM 41.7039 -103.5106 178° South 189 217 9,000 1,260 Climbing Denver Center
08:52AM 41.6525 -103.5103 180° South 193 222 10,200 1,140 Climbing Denver Center
08:53AM 41.5983 -103.5156 184° South 200 230 11,400 1,200 Climbing Denver Center
08:54AM 41.5339 -103.5283 188° South 207 238 12,700 1,080 Climbing Denver Center
08:55AM 41.4778 -103.5383 188° South 212 244 13,700 960 Climbing Denver Center
08:56AM 41.4175 -103.5481 187° South 223 257 14,700 600 Climbing Denver Center
08:57AM 41.3436 -103.5564 185° South 234 269 15,000 120 Climbing Denver Center
08:58AM 41.2722 -103.5656 186° South 258 297 15,000  Level Denver Center
08:59AM 41.1989 -103.5775 187° South 272 313 15,000  Level Denver Center
09:00AM 41.1114 -103.5914 187° South 281 323 15,000  Level Denver Center
09:01AM 41.0478 -103.6064 190° South 286 329 15,000  Level Denver Center
09:02AM 40.9533 -103.6192 186° South 286 329 15,000  Level Denver Center
09:03AM 40.8742 -103.6278 185° South 285 328 15,000  Level Denver Center
09:04AM 40.7969 -103.6564 196° South 290 334 15,000  Level Denver Center
09:05AM 40.7258 -103.7019 206° Southwest 287 330 15,000  Level Denver Center
09:06AM 40.6542 -103.7472 206° Southwest 287 330 15,000 -60 Level Denver Center
09:07AM 40.5825 -103.7925 206° Southwest 285 328 14,900 -660 Descending Denver Center
09:08AM 40.5147 -103.8392 208° Southwest 278 320 13,700 -1,020 Descending Denver Center
09:09AM 40.4389 -103.8972 210° Southwest 286 329 12,900 -360 Descending Denver Center
09:10AM 40.3794 -103.9650 221° Southwest 283 326 13,000  Climbing Denver Center
09:11AM 40.3136 -104.0169 211° Southwest 278 320 13,000  Level Denver Center
09:12AM 40.2386 -104.0497 198° South 282 325 13,000 -420 Level Denver Center
09:13AM 40.1642 -104.0839 199° South 283 326 12,200 -1,020 Descending Denver Center
09:14AM 40.0831 -104.1264 202° Southwest 292 336 11,000 -1,020 Descending Denver Center
09:16AM 40.0214 -104.1919 219° Southwest 286 329 10,000 -600 Descending Denver Center
09:17AM 39.9622 -104.2769 228° Southwest 278 320 9,700 -600 Descending Denver Center
09:18AM 39.9194 -104.3694 239° Southwest 277 319 8,800 -960 Descending Denver Center
09:19AM 39.8822 -104.4533 240° Southwest 269 310 7,800 -1,140 Descending Denver Center
09:20AM 39.8769 -104.5444 266° West 253 291 6,500 -1,140 Descending Denver Center
09:21AM 39.8772 -104.6072 270° West 165 190 5,500 -600 Descending Denver Center
09:22AM 39.8764 -104.6506 269° West 137 158 5,300 -240 Descending Denver Center
09:24AM 39.8500 -104.6667 229° Southwest  Level FlightAware Approximate
09:31AM 39.8617 -104.6732 229° Southwest  Level Estimated
09:32AM 39.8617 -104.6732 229° Southwest  Level Estimated